createdAt,value
2023-03-19T00:02:12.230Z,5.20
2023-03-19T00:04:43.801Z,5.20
2023-03-19T00:07:11.162Z,5.20
2023-03-19T00:09:40.784Z,5.10
2023-03-19T00:12:08.285Z,5.10
2023-03-19T00:14:35.539Z,5.10
2023-03-19T00:17:02.474Z,5.00
2023-03-19T00:19:29.304Z,5.00
2023-03-19T00:21:57.816Z,5.00
2023-03-19T00:24:25.250Z,4.90
2023-03-19T00:26:53.398Z,4.90
2023-03-19T00:29:22.633Z,4.90
2023-03-19T00:31:49.586Z,4.80
2023-03-19T00:34:19.150Z,4.80
2023-03-19T00:36:46.822Z,4.80
2023-03-19T00:39:13.685Z,4.80
2023-03-19T00:41:40.623Z,4.80
2023-03-19T00:44:08.370Z,4.70
2023-03-19T00:46:36.373Z,4.60
2023-03-19T00:49:04.704Z,4.70
2023-03-19T00:51:31.373Z,4.60
2023-03-19T00:53:58.428Z,4.50
2023-03-19T00:56:25.072Z,4.40
2023-03-19T00:58:52.039Z,4.40
2023-03-19T01:01:19.455Z,4.40
2023-03-19T01:03:46.368Z,4.30
2023-03-19T01:06:13.254Z,4.30
2023-03-19T01:08:40.150Z,4.30
2023-03-19T01:11:11.840Z,4.30
2023-03-19T01:13:38.860Z,4.20
2023-03-19T01:16:06.892Z,4.20
2023-03-19T01:18:35.397Z,4.10
2023-03-19T01:21:02.069Z,4.10
2023-03-19T01:23:30.887Z,4.10
2023-03-19T01:25:58.104Z,4.10
2023-03-19T01:28:24.910Z,4.00
2023-03-19T01:30:51.813Z,4.00
2023-03-19T01:33:20.680Z,4.00
2023-03-19T01:35:52.733Z,4.00
2023-03-19T01:38:19.908Z,4.00
2023-03-19T01:40:48.102Z,3.90
2023-03-19T01:43:19.386Z,3.90
2023-03-19T01:45:47.418Z,3.80
2023-03-19T01:48:28.454Z,3.80
2023-03-19T01:50:56.264Z,3.80
2023-03-19T01:53:24.801Z,3.80
2023-03-19T01:55:52.574Z,3.80
2023-03-19T01:58:19.342Z,3.70
2023-03-19T02:00:46.620Z,3.70
2023-03-19T02:03:14.541Z,3.70
2023-03-19T02:05:42.822Z,3.60
2023-03-19T02:08:12.294Z,3.60
2023-03-19T02:10:41.300Z,3.60
2023-03-19T02:13:08.579Z,3.60
2023-03-19T02:15:36.085Z,3.60
2023-03-19T02:18:02.762Z,3.60
2023-03-19T02:20:41.410Z,3.60
2023-03-19T02:23:17.134Z,3.60
2023-03-19T02:25:46.886Z,3.50
2023-03-19T02:28:16.620Z,3.50
2023-03-19T02:30:44.191Z,3.50
2023-03-19T02:33:15.370Z,3.50
2023-03-19T02:35:42.538Z,3.50
2023-03-19T02:38:09.408Z,3.50
2023-03-19T02:40:38.376Z,3.50
2023-03-19T02:43:05.349Z,3.50
2023-03-19T02:45:32.246Z,3.50
2023-03-19T02:47:59.306Z,3.50
2023-03-19T02:50:26.749Z,3.50
2023-03-19T02:52:53.535Z,3.50
2023-03-19T02:55:23.684Z,3.40
2023-03-19T02:57:51.084Z,3.40
2023-03-19T03:00:19.175Z,3.40
2023-03-19T03:02:46.136Z,3.30
2023-03-19T03:05:14.497Z,3.30
2023-03-19T03:07:43.171Z,3.30
2023-03-19T03:10:10.927Z,3.30
2023-03-19T03:12:38.828Z,3.20
2023-03-19T03:15:06.606Z,3.20
2023-03-19T03:17:33.453Z,3.20
2023-03-19T03:20:00.350Z,3.20
2023-03-19T03:22:27.801Z,3.10
2023-03-19T03:24:54.418Z,3.10
2023-03-19T03:27:21.018Z,3.10
2023-03-19T03:29:47.754Z,3.00
2023-03-19T03:32:14.484Z,3.00
2023-03-19T03:34:41.491Z,2.90
2023-03-19T03:37:08.100Z,3.00
2023-03-19T03:39:35.051Z,2.90
2023-03-19T03:42:01.674Z,2.90
2023-03-19T03:44:28.308Z,2.80
2023-03-19T03:46:55.203Z,2.80
2023-03-19T03:49:22.009Z,2.80
2023-03-19T03:51:48.811Z,2.80
2023-03-19T03:54:16.743Z,2.80
2023-03-19T03:56:43.393Z,2.80
2023-03-19T03:59:10.259Z,2.80
2023-03-19T04:01:36.980Z,2.70
2023-03-19T04:04:03.982Z,2.70
2023-03-19T04:06:30.884Z,2.60
2023-03-19T04:08:57.541Z,2.60
2023-03-19T04:11:24.807Z,2.60
2023-03-19T04:13:52.096Z,2.60
2023-03-19T04:16:18.846Z,2.60
2023-03-19T04:18:48.255Z,2.60
2023-03-19T04:21:14.895Z,2.60
2023-03-19T04:23:41.734Z,2.60
2023-03-19T04:26:08.450Z,2.60
2023-03-19T04:28:35.380Z,2.60
2023-03-19T04:31:02.838Z,2.60
2023-03-19T04:33:29.973Z,2.60
2023-03-19T04:35:57.398Z,2.60
2023-03-19T04:38:26.325Z,2.60
2023-03-19T04:40:53.500Z,2.60
2023-03-19T04:43:20.121Z,2.60
2023-03-19T04:45:46.779Z,2.60
2023-03-19T04:48:13.607Z,2.70
2023-03-19T04:50:41.027Z,2.70
2023-03-19T04:53:09.052Z,2.60
2023-03-19T04:55:35.805Z,2.60
2023-03-19T04:58:03.012Z,2.60
2023-03-19T05:00:31.019Z,2.60
2023-03-19T05:02:57.719Z,2.60
2023-03-19T05:05:24.356Z,2.60
2023-03-19T05:07:51.098Z,2.60
2023-03-19T05:10:17.804Z,2.60
2023-03-19T05:12:44.670Z,2.70
2023-03-19T05:15:11.533Z,2.70
2023-03-19T05:17:38.472Z,2.80
2023-03-19T05:20:05.339Z,2.80
2023-03-19T05:22:32.037Z,2.80
2023-03-19T05:24:59.683Z,2.80
2023-03-19T05:27:26.397Z,2.80
2023-03-19T05:29:53.081Z,2.90
2023-03-19T05:32:20.423Z,2.90
2023-03-19T05:34:48.027Z,2.90
2023-03-19T05:37:14.667Z,2.90
2023-03-19T05:39:42.006Z,3.00
2023-03-19T05:42:08.918Z,3.00
2023-03-19T05:44:38.819Z,3.00
2023-03-19T05:47:06.070Z,3.10
2023-03-19T05:49:32.931Z,3.10
2023-03-19T05:52:00.351Z,3.20
2023-03-19T05:54:27.064Z,3.30
2023-03-19T05:56:53.986Z,3.30
2023-03-19T05:59:20.856Z,3.40
2023-03-19T06:01:47.927Z,3.40
2023-03-19T06:04:14.887Z,3.60
2023-03-19T06:06:42.289Z,3.70
2023-03-19T06:09:08.935Z,3.80
2023-03-19T06:11:35.809Z,3.90
2023-03-19T06:14:02.640Z,4.10
2023-03-19T06:16:30.443Z,4.20
2023-03-19T06:18:57.365Z,4.30
2023-03-19T06:21:29.419Z,4.40
2023-03-19T06:23:56.538Z,4.50
2023-03-19T06:26:23.809Z,4.60
2023-03-19T06:28:50.507Z,4.80
2023-03-19T06:31:17.192Z,4.90
2023-03-19T06:33:43.905Z,5.00
2023-03-19T06:36:10.747Z,5.20
2023-03-19T06:38:37.854Z,5.30
2023-03-19T06:41:04.809Z,5.50
2023-03-19T06:43:32.104Z,5.60
2023-03-19T06:45:58.847Z,5.80
2023-03-19T06:48:25.818Z,5.90
2023-03-19T06:50:52.459Z,6.10
2023-03-19T06:53:19.060Z,6.30
2023-03-19T06:55:46.035Z,6.40
2023-03-19T06:58:13.749Z,6.60
2023-03-19T07:00:45.484Z,6.70
2023-03-19T07:03:12.762Z,6.80
2023-03-19T07:05:39.392Z,7.00
2023-03-19T07:08:12.127Z,7.10
2023-03-19T07:10:39.164Z,7.30
2023-03-19T07:13:06.700Z,7.40
2023-03-19T07:15:33.644Z,7.60
2023-03-19T07:18:00.318Z,7.70
2023-03-19T07:20:27.104Z,7.80
2023-03-19T07:22:54.117Z,8.00
2023-03-19T07:25:21.211Z,8.10
2023-03-19T07:27:47.824Z,8.20
2023-03-19T07:30:15.040Z,8.30
2023-03-19T07:32:43.284Z,8.40
2023-03-19T07:35:10.608Z,8.40
2023-03-19T07:37:37.224Z,8.40
2023-03-19T07:40:05.127Z,8.40
2023-03-19T07:42:31.938Z,8.50
2023-03-19T07:44:58.786Z,8.50
2023-03-19T07:47:29.438Z,8.50
2023-03-19T07:49:56.914Z,8.50
2023-03-19T07:52:24.076Z,8.50
2023-03-19T07:54:50.829Z,8.50
2023-03-19T07:57:17.646Z,8.50
2023-03-19T07:59:44.239Z,8.40
2023-03-19T08:02:12.231Z,8.40
2023-03-19T08:04:39.412Z,8.50
2023-03-19T08:07:07.261Z,8.40
2023-03-19T08:09:34.543Z,8.40
2023-03-19T08:12:01.257Z,8.50
2023-03-19T08:14:27.881Z,8.50
2023-03-19T08:16:54.542Z,8.60
2023-03-19T08:19:21.286Z,8.60
2023-03-19T08:21:47.934Z,8.60
2023-03-19T08:24:15.156Z,8.70
2023-03-19T08:26:41.735Z,8.80
2023-03-19T08:29:08.562Z,8.90
2023-03-19T08:31:36.075Z,9.00
2023-03-19T08:34:05.101Z,9.20
2023-03-19T08:36:31.916Z,9.30
2023-03-19T08:38:59.260Z,9.40
2023-03-19T08:41:26.007Z,9.60
2023-03-19T08:43:53.690Z,9.70
2023-03-19T08:46:20.953Z,9.80
2023-03-19T08:48:47.788Z,10.00
2023-03-19T08:51:14.508Z,10.30
2023-03-19T08:53:41.363Z,10.50
2023-03-19T08:56:09.544Z,10.70
2023-03-19T08:58:36.446Z,11.00
2023-03-19T09:01:10.186Z,11.30
2023-03-19T09:03:37.591Z,11.50
2023-03-19T09:06:05.820Z,11.80
2023-03-19T09:08:33.036Z,12.00
2023-03-19T09:11:00.017Z,12.20
2023-03-19T09:13:26.881Z,12.30
2023-03-19T09:15:54.795Z,12.50
2023-03-19T09:18:23.994Z,12.70
2023-03-19T09:20:52.736Z,12.80
2023-03-19T09:23:19.648Z,13.00
2023-03-19T09:25:46.986Z,13.20
2023-03-19T09:28:13.801Z,13.30
2023-03-19T09:30:40.472Z,13.50
2023-03-19T09:33:08.325Z,13.70
2023-03-19T09:35:35.223Z,13.70
2023-03-19T09:38:02.126Z,13.90
2023-03-19T09:40:36.750Z,14.10
2023-03-19T09:43:06.692Z,14.10
2023-03-19T09:45:33.654Z,14.10
2023-03-19T09:48:04.492Z,14.10
2023-03-19T09:50:34.626Z,14.10
2023-03-19T09:53:01.292Z,14.10
2023-03-19T09:55:38.138Z,14.20
2023-03-19T09:58:18.489Z,14.30
2023-03-19T10:00:47.809Z,14.40
2023-03-19T10:03:26.654Z,14.30
2023-03-19T10:06:01.970Z,14.30
2023-03-19T10:08:28.856Z,14.30
2023-03-19T10:11:13.386Z,14.30
2023-03-19T10:13:46.349Z,14.30
2023-03-19T10:16:20.305Z,14.30
2023-03-19T10:18:49.082Z,14.30
2023-03-19T10:21:22.097Z,14.30
2023-03-19T10:23:49.504Z,14.40
2023-03-19T10:26:19.392Z,14.50
2023-03-19T10:28:54.347Z,14.60
2023-03-19T10:31:29.981Z,14.60
2023-03-19T10:34:06.907Z,14.60
2023-03-19T10:36:35.897Z,14.70
2023-03-19T10:39:05.517Z,14.80
2023-03-19T10:41:44.106Z,14.90
2023-03-19T10:44:16.021Z,14.90
2023-03-19T10:46:43.068Z,15.00
2023-03-19T10:49:13.254Z,15.10
2023-03-19T10:51:42.528Z,15.10
2023-03-19T10:54:33.122Z,15.10
2023-03-19T10:57:00.411Z,15.10
2023-03-19T10:59:30.917Z,15.10
2023-03-19T11:01:59.103Z,15.00
2023-03-19T11:04:32.194Z,15.00
2023-03-19T11:07:03.739Z,15.10
2023-03-19T11:09:37.573Z,15.20
2023-03-19T11:12:23.052Z,15.30
2023-03-19T11:14:53.634Z,15.30
2023-03-19T11:17:28.600Z,15.30
2023-03-19T11:19:56.773Z,15.60
2023-03-19T11:22:24.623Z,15.70
2023-03-19T11:24:57.508Z,15.80
2023-03-19T11:27:28.182Z,15.90
2023-03-19T11:29:55.097Z,16.00
2023-03-19T11:32:31.053Z,16.10
2023-03-19T11:35:25.683Z,16.30
2023-03-19T11:38:00.702Z,16.40
2023-03-19T11:40:45.374Z,16.50
2023-03-19T11:43:45.436Z,16.60
2023-03-19T11:46:34.395Z,16.60
2023-03-19T11:49:09.844Z,16.90
2023-03-19T11:51:41.634Z,17.00
2023-03-19T11:54:08.442Z,17.30
2023-03-19T11:57:04.633Z,17.30
2023-03-19T11:59:52.268Z,17.50
2023-03-19T12:02:37.552Z,17.50
2023-03-19T12:05:20.737Z,17.50
2023-03-19T12:08:06.376Z,17.50
2023-03-19T12:10:36.260Z,17.50
2023-03-19T12:13:03.146Z,17.30
2023-03-19T12:15:39.100Z,17.20
2023-03-19T12:18:05.897Z,17.10
2023-03-19T12:20:35.555Z,17.10
2023-03-19T12:23:20.910Z,17.20
2023-03-19T12:25:50.475Z,17.00
2023-03-19T12:28:23.014Z,17.00
2023-03-19T12:31:04.389Z,17.00
2023-03-19T12:33:44.625Z,17.00
2023-03-19T12:36:20.171Z,17.20
2023-03-19T12:38:50.901Z,17.30
2023-03-19T12:41:22.486Z,17.30
2023-03-19T12:43:53.895Z,17.50
2023-03-19T12:46:36.415Z,17.60
2023-03-19T12:49:23.340Z,17.60
2023-03-19T12:51:53.876Z,17.60
2023-03-19T12:54:27.328Z,17.80
2023-03-19T12:57:03.535Z,18.00
2023-03-19T12:59:30.235Z,18.00
2023-03-19T13:02:03.192Z,18.00
2023-03-19T13:04:31.978Z,18.10
2023-03-19T13:07:08.470Z,18.00
2023-03-19T13:09:47.127Z,18.00
2023-03-19T13:12:18.296Z,18.10
2023-03-19T13:14:52.526Z,18.00
2023-03-19T13:17:34.548Z,17.90
2023-03-19T13:20:05.373Z,18.00
2023-03-19T13:22:34.515Z,18.10
2023-03-19T13:25:01.843Z,18.00
2023-03-19T13:27:35.725Z,17.80
2023-03-19T13:30:04.123Z,17.60
2023-03-19T13:32:40.560Z,17.50
2023-03-19T13:35:10.092Z,17.30
2023-03-19T13:37:41.674Z,17.10
2023-03-19T13:40:28.449Z,16.80
2023-03-19T13:42:58.414Z,16.70
2023-03-19T13:45:35.502Z,16.70
2023-03-19T13:48:24.537Z,16.60
2023-03-19T13:51:00.544Z,16.60
2023-03-19T13:53:42.700Z,16.70
2023-03-19T13:56:26.280Z,16.70
2023-03-19T13:59:14.986Z,16.80
2023-03-19T14:01:44.816Z,16.80
2023-03-19T14:04:29.520Z,16.70
2023-03-19T14:06:56.128Z,16.70
2023-03-19T14:09:34.882Z,16.70
2023-03-19T14:12:20.137Z,16.70
2023-03-19T14:14:52.059Z,16.80
2023-03-19T14:17:21.688Z,16.90
2023-03-19T14:19:50.239Z,16.90
2023-03-19T14:22:17.068Z,17.00
2023-03-19T14:24:57.093Z,17.10
2023-03-19T14:27:33.205Z,17.10
2023-03-19T14:30:03.020Z,17.00
2023-03-19T14:32:41.015Z,17.00
2023-03-19T14:35:08.326Z,17.00
2023-03-19T14:37:38.151Z,17.10
2023-03-19T14:40:07.891Z,17.00
2023-03-19T14:42:38.358Z,16.90
2023-03-19T14:45:25.757Z,16.90
2023-03-19T14:47:56.000Z,17.00
2023-03-19T14:50:40.340Z,17.10
2023-03-19T14:53:15.532Z,17.10
2023-03-19T14:55:42.522Z,16.90
2023-03-19T14:58:12.727Z,16.90
2023-03-19T15:00:55.799Z,16.90
2023-03-19T15:03:27.508Z,16.80
2023-03-19T15:05:57.630Z,16.70
2023-03-19T15:08:24.732Z,16.70
2023-03-19T15:10:57.608Z,16.60
2023-03-19T15:13:24.244Z,16.50
2023-03-19T15:16:10.047Z,16.50
2023-03-19T15:18:37.199Z,16.50
2023-03-19T15:21:04.643Z,16.40
2023-03-19T15:23:31.955Z,16.40
2023-03-19T15:26:01.411Z,16.40
2023-03-19T15:28:29.737Z,16.30
2023-03-19T15:31:05.645Z,16.20
2023-03-19T15:33:41.403Z,16.10
2023-03-19T15:36:25.267Z,16.10
2023-03-19T15:38:57.185Z,16.10
2023-03-19T15:41:25.611Z,16.00
2023-03-19T15:43:52.791Z,16.00
2023-03-19T15:46:23.026Z,16.00
2023-03-19T15:48:53.603Z,15.90
2023-03-19T15:51:22.515Z,15.90
2023-03-19T15:53:49.483Z,15.80
2023-03-19T15:56:17.602Z,15.80
2023-03-19T15:58:47.529Z,15.70
2023-03-19T16:01:16.008Z,15.60
2023-03-19T16:03:51.794Z,15.60
2023-03-19T16:06:25.684Z,15.60
2023-03-19T16:08:54.492Z,15.50
2023-03-19T16:11:27.235Z,15.40
2023-03-19T16:13:58.298Z,15.40
2023-03-19T16:16:27.848Z,15.30
2023-03-19T16:18:55.769Z,15.30
2023-03-19T16:21:22.729Z,15.20
2023-03-19T16:23:54.602Z,15.10
2023-03-19T16:26:30.477Z,15.10
2023-03-19T16:28:59.216Z,14.90
2023-03-19T16:31:29.343Z,14.80
2023-03-19T16:33:56.977Z,14.70
2023-03-19T16:36:27.458Z,14.60
2023-03-19T16:38:58.789Z,14.50
2023-03-19T16:41:34.764Z,14.40
2023-03-19T16:44:12.842Z,14.30
2023-03-19T16:46:39.567Z,14.20
2023-03-19T16:49:06.612Z,14.10
2023-03-19T16:51:33.400Z,14.00
2023-03-19T16:54:00.422Z,13.90
2023-03-19T16:56:28.132Z,13.80
2023-03-19T16:58:55.029Z,13.70
2023-03-19T17:01:22.991Z,13.50
2023-03-19T17:03:50.948Z,13.40
2023-03-19T17:06:18.358Z,13.30
2023-03-19T17:08:45.350Z,13.20
2023-03-19T17:11:34.931Z,13.10
2023-03-19T17:14:02.369Z,13.00
2023-03-19T17:16:30.754Z,12.80
2023-03-19T17:18:57.478Z,12.70
2023-03-19T17:21:28.728Z,12.60
2023-03-19T17:24:00.167Z,12.40
2023-03-19T17:26:27.856Z,12.30
2023-03-19T17:28:55.524Z,12.30
2023-03-19T17:31:29.713Z,12.20
2023-03-19T17:34:02.533Z,12.00
2023-03-19T17:36:29.302Z,12.00
2023-03-19T17:38:57.068Z,11.80
2023-03-19T17:41:24.057Z,11.80
2023-03-19T17:43:50.908Z,11.60
2023-03-19T17:46:22.444Z,11.60
2023-03-19T17:48:50.040Z,11.40
2023-03-19T17:51:17.324Z,11.30
2023-03-19T17:53:46.644Z,11.30
2023-03-19T17:56:17.190Z,11.20
2023-03-19T17:58:44.274Z,11.10
2023-03-19T18:01:15.046Z,11.00
2023-03-19T18:03:41.705Z,10.90
2023-03-19T18:06:15.237Z,10.80
2023-03-19T18:08:41.940Z,10.80
2023-03-19T18:11:08.610Z,10.70
2023-03-19T18:13:35.427Z,10.60
2023-03-19T18:16:13.705Z,10.60
2023-03-19T18:18:41.068Z,10.60
2023-03-19T18:21:10.833Z,10.50
2023-03-19T18:23:37.774Z,10.50
2023-03-19T18:26:04.496Z,10.50
2023-03-19T18:28:32.079Z,10.40
2023-03-19T18:30:59.774Z,10.40
2023-03-19T18:33:28.106Z,10.30
2023-03-19T18:35:58.012Z,10.30
2023-03-19T18:38:25.834Z,10.30
2023-03-19T18:40:53.492Z,10.20
2023-03-19T18:43:20.112Z,10.20
2023-03-19T18:45:48.439Z,10.10
2023-03-19T18:48:20.685Z,10.10
2023-03-19T18:50:48.533Z,10.00
2023-03-19T18:53:16.446Z,10.00
2023-03-19T18:55:43.593Z,9.90
2023-03-19T18:58:16.614Z,9.90
2023-03-19T19:00:43.413Z,9.90
2023-03-19T19:03:11.734Z,9.80
2023-03-19T19:05:38.420Z,9.80
2023-03-19T19:08:07.369Z,9.80
2023-03-19T19:10:35.340Z,9.80
2023-03-19T19:13:02.477Z,9.80
2023-03-19T19:15:30.848Z,9.70
2023-03-19T19:17:57.789Z,9.70
2023-03-19T19:20:26.326Z,9.60
2023-03-19T19:22:53.652Z,9.50
2023-03-19T19:25:22.188Z,9.50
2023-03-19T19:27:51.181Z,9.50
2023-03-19T19:30:19.563Z,9.40
2023-03-19T19:32:46.661Z,9.40
2023-03-19T19:35:24.709Z,9.30
2023-03-19T19:37:59.215Z,9.30
2023-03-19T19:40:31.153Z,9.20
2023-03-19T19:42:58.282Z,9.10
2023-03-19T19:45:29.788Z,9.10
2023-03-19T19:47:58.474Z,9.00
2023-03-19T19:50:27.478Z,9.00
2023-03-19T19:52:55.485Z,8.90
2023-03-19T19:55:23.391Z,8.90
2023-03-19T19:57:50.432Z,8.80
2023-03-19T20:00:19.021Z,8.80
2023-03-19T20:02:45.644Z,8.80
2023-03-19T20:05:16.462Z,8.70
2023-03-19T20:07:43.064Z,8.70
2023-03-19T20:10:10.129Z,8.70
2023-03-19T20:12:38.254Z,8.60
2023-03-19T20:15:13.418Z,8.60
2023-03-19T20:17:40.474Z,8.50
2023-03-19T20:20:14.254Z,8.50
2023-03-19T20:22:43.721Z,8.50
2023-03-19T20:25:10.979Z,8.40
2023-03-19T20:27:39.340Z,8.40
2023-03-19T20:30:06.861Z,8.30
2023-03-19T20:32:34.932Z,8.30
2023-03-19T20:35:01.948Z,8.30
2023-03-19T20:37:28.848Z,8.20
2023-03-19T20:39:55.728Z,8.10
2023-03-19T20:42:23.502Z,8.10
2023-03-19T20:44:52.401Z,8.00
2023-03-19T20:47:21.716Z,8.00
2023-03-19T20:49:49.684Z,8.00
2023-03-19T20:52:16.563Z,7.90
2023-03-19T20:54:43.308Z,7.80
2023-03-19T20:57:14.246Z,7.70
2023-03-19T20:59:44.271Z,7.70
2023-03-19T21:02:14.858Z,7.60
2023-03-19T21:04:41.906Z,7.50
2023-03-19T21:07:16.404Z,7.50
2023-03-19T21:09:43.051Z,7.40
2023-03-19T21:12:22.646Z,7.30
2023-03-19T21:14:49.490Z,7.30
2023-03-19T21:17:16.706Z,7.30
2023-03-19T21:19:43.311Z,7.20
2023-03-19T21:22:12.987Z,7.20
2023-03-19T21:24:39.653Z,7.10
2023-03-19T21:27:06.480Z,7.10
2023-03-19T21:29:33.605Z,7.00
2023-03-19T21:32:00.707Z,7.00
2023-03-19T21:34:28.421Z,6.90
2023-03-19T21:36:55.427Z,6.90
2023-03-19T21:39:22.977Z,6.90
2023-03-19T21:41:49.853Z,6.80
2023-03-19T21:44:18.751Z,6.80
2023-03-19T21:46:46.573Z,6.90
2023-03-19T21:49:14.008Z,6.90
2023-03-19T21:51:42.928Z,6.90
2023-03-19T21:54:11.305Z,7.00
2023-03-19T21:56:43.224Z,7.00
2023-03-19T21:59:13.976Z,7.10
2023-03-19T22:01:41.315Z,7.10
2023-03-19T22:04:08.291Z,7.10
2023-03-19T22:06:35.141Z,7.20
2023-03-19T22:09:04.153Z,7.20
2023-03-19T22:11:32.713Z,7.30
2023-03-19T22:14:04.086Z,7.40
2023-03-19T22:16:31.954Z,7.40
2023-03-19T22:18:58.813Z,7.50
2023-03-19T22:21:25.959Z,7.60
2023-03-19T22:23:52.581Z,7.70
2023-03-19T22:26:31.784Z,7.70
2023-03-19T22:29:00.749Z,7.80
2023-03-19T22:31:27.587Z,7.80
2023-03-19T22:33:56.978Z,7.80
2023-03-19T22:36:23.648Z,7.90
2023-03-19T22:38:50.625Z,7.90
2023-03-19T22:41:22.235Z,8.00
2023-03-19T22:43:49.039Z,8.10
2023-03-19T22:46:18.980Z,8.20
2023-03-19T22:48:47.938Z,8.30
2023-03-19T22:51:17.602Z,8.30
2023-03-19T22:53:44.813Z,8.30
2023-03-19T22:56:14.011Z,8.40
2023-03-19T22:58:40.782Z,8.40
2023-03-19T23:01:26.597Z,8.50
2023-03-19T23:03:53.463Z,8.50
2023-03-19T23:06:30.150Z,8.60
2023-03-19T23:08:57.762Z,8.60
2023-03-19T23:11:24.748Z,8.60
2023-03-19T23:13:51.906Z,8.70
2023-03-19T23:16:23.456Z,8.70
2023-03-19T23:21:20.889Z,8.80
2023-03-19T23:23:47.737Z,8.80
2023-03-19T23:26:25.572Z,8.90
2023-03-19T23:28:52.908Z,8.90
2023-03-19T23:31:20.252Z,8.90
2023-03-19T23:33:46.941Z,8.90
2023-03-19T23:36:13.969Z,8.90
2023-03-19T23:38:41.594Z,8.90
2023-03-19T23:41:11.039Z,9.00
2023-03-19T23:43:37.714Z,9.00
2023-03-19T23:46:04.612Z,9.00
2023-03-19T23:48:33.899Z,9.00
2023-03-19T23:51:00.864Z,9.00
2023-03-19T23:53:28.412Z,9.00
2023-03-19T23:55:59.630Z,9.00
2023-03-19T23:58:40.327Z,9.00
